sensor_id;sensor_type;location;lat;lon;timestamp;P1;durP1;ratioP1;P2;durP2;ratioP2
71253;SDS011;59019;47.638;18.966;2024-03-29T00:00:02;2.70;;;1.00;;
71253;SDS011;59019;47.638;18.966;2024-03-29T00:02:30;2.88;;;0.95;;
71253;SDS011;59019;47.638;18.966;2024-03-29T00:04:56;2.95;;;0.85;;
71253;SDS011;59019;47.638;18.966;2024-03-29T00:07:26;3.00;;;0.82;;
71253;SDS011;59019;47.638;18.966;2024-03-29T00:09:53;3.20;;;0.90;;
71253;SDS011;59019;47.638;18.966;2024-03-29T00:12:19;2.80;;;0.70;;
71253;SDS011;59019;47.638;18.966;2024-03-29T00:14:46;2.35;;;0.70;;
71253;SDS011;59019;47.638;18.966;2024-03-29T00:17:13;2.85;;;0.60;;
71253;SDS011;59019;47.638;18.966;2024-03-29T00:19:40;2.55;;;0.60;;
71253;SDS011;59019;47.638;18.966;2024-03-29T00:22:06;3.15;;;0.70;;
71253;SDS011;59019;47.638;18.966;2024-03-29T00:24:32;2.65;;;0.82;;
71253;SDS011;59019;47.638;18.966;2024-03-29T00:26:59;2.40;;;0.50;;
71253;SDS011;59019;47.638;18.966;2024-03-29T00:29:27;2.50;;;0.70;;
71253;SDS011;59019;47.638;18.966;2024-03-29T00:31:53;2.67;;;0.50;;
71253;SDS011;59019;47.638;18.966;2024-03-29T00:34:20;2.05;;;0.50;;
71253;SDS011;59019;47.638;18.966;2024-03-29T00:36:47;1.98;;;0.47;;
71253;SDS011;59019;47.638;18.966;2024-03-29T00:39:14;2.40;;;0.50;;
71253;SDS011;59019;47.638;18.966;2024-03-29T00:41:42;1.85;;;0.50;;
71253;SDS011;59019;47.638;18.966;2024-03-29T00:44:09;2.80;;;0.50;;
71253;SDS011;59019;47.638;18.966;2024-03-29T00:46:35;2.38;;;0.50;;
71253;SDS011;59019;47.638;18.966;2024-03-29T00:49:01;2.05;;;0.50;;
71253;SDS011;59019;47.638;18.966;2024-03-29T00:51:28;2.50;;;0.50;;
71253;SDS011;59019;47.638;18.966;2024-03-29T00:53:54;1.77;;;0.50;;
71253;SDS011;59019;47.638;18.966;2024-03-29T00:56:21;2.28;;;0.52;;
71253;SDS011;59019;47.638;18.966;2024-03-29T00:58:47;2.60;;;0.60;;
71253;SDS011;59019;47.638;18.966;2024-03-29T01:01:14;2.70;;;0.70;;
71253;SDS011;59019;47.638;18.966;2024-03-29T01:03:40;2.88;;;0.60;;
71253;SDS011;59019;47.638;18.966;2024-03-29T01:06:06;2.20;;;0.60;;
71253;SDS011;59019;47.638;18.966;2024-03-29T01:08:31;2.00;;;0.50;;
71253;SDS011;59019;47.638;18.966;2024-03-29T01:10:57;2.30;;;0.60;;
71253;SDS011;59019;47.638;18.966;2024-03-29T01:13:22;3.05;;;0.98;;
71253;SDS011;59019;47.638;18.966;2024-03-29T01:15:48;2.35;;;0.60;;
71253;SDS011;59019;47.638;18.966;2024-03-29T01:18:13;2.00;;;0.50;;
71253;SDS011;59019;47.638;18.966;2024-03-29T01:20:38;2.35;;;0.60;;
71253;SDS011;59019;47.638;18.966;2024-03-29T01:23:04;2.70;;;0.50;;
71253;SDS011;59019;47.638;18.966;2024-03-29T01:25:29;2.03;;;0.50;;
71253;SDS011;59019;47.638;18.966;2024-03-29T01:27:55;2.15;;;0.40;;
71253;SDS011;59019;47.638;18.966;2024-03-29T01:30:20;2.15;;;0.50;;
71253;SDS011;59019;47.638;18.966;2024-03-29T01:32:48;1.85;;;0.50;;
71253;SDS011;59019;47.638;18.966;2024-03-29T01:35:13;2.23;;;0.50;;
71253;SDS011;59019;47.638;18.966;2024-03-29T01:37:38;1.70;;;0.40;;
71253;SDS011;59019;47.638;18.966;2024-03-29T01:40:04;1.30;;;0.40;;
71253;SDS011;59019;47.638;18.966;2024-03-29T01:42:30;1.67;;;0.47;;
71253;SDS011;59019;47.638;18.966;2024-03-29T01:44:56;1.50;;;0.30;;
71253;SDS011;59019;47.638;18.966;2024-03-29T01:47:21;2.20;;;0.40;;
71253;SDS011;59019;47.638;18.966;2024-03-29T01:49:47;1.73;;;0.30;;
71253;SDS011;59019;47.638;18.966;2024-03-29T01:52:13;2.08;;;0.30;;
71253;SDS011;59019;47.638;18.966;2024-03-29T01:54:41;1.20;;;0.30;;
71253;SDS011;59019;47.638;18.966;2024-03-29T01:57:08;1.55;;;0.35;;
71253;SDS011;59019;47.638;18.966;2024-03-29T01:59:34;1.50;;;0.30;;
71253;SDS011;59019;47.638;18.966;2024-03-29T02:02:00;1.40;;;0.30;;
71253;SDS011;59019;47.638;18.966;2024-03-29T02:04:26;1.20;;;0.30;;
71253;SDS011;59019;47.638;18.966;2024-03-29T02:06:52;1.20;;;0.30;;
71253;SDS011;59019;47.638;18.966;2024-03-29T02:09:17;1.25;;;0.30;;
71253;SDS011;59019;47.638;18.966;2024-03-29T02:11:43;1.30;;;0.30;;
71253;SDS011;59019;47.638;18.966;2024-03-29T02:14:08;1.40;;;0.40;;
71253;SDS011;59019;47.638;18.966;2024-03-29T02:16:34;1.35;;;0.30;;
71253;SDS011;59019;47.638;18.966;2024-03-29T02:18:59;1.70;;;0.40;;
71253;SDS011;59019;47.638;18.966;2024-03-29T02:21:25;1.67;;;0.40;;
71253;SDS011;59019;47.638;18.966;2024-03-29T02:23:57;2.40;;;0.50;;
71253;SDS011;59019;47.638;18.966;2024-03-29T02:26:24;3.08;;;0.50;;
71253;SDS011;59019;47.638;18.966;2024-03-29T02:28:53;2.20;;;0.40;;
71253;SDS011;59019;47.638;18.966;2024-03-29T02:31:19;1.83;;;0.40;;
71253;SDS011;59019;47.638;18.966;2024-03-29T02:33:44;1.30;;;0.30;;
71253;SDS011;59019;47.638;18.966;2024-03-29T02:36:10;2.03;;;0.50;;
71253;SDS011;59019;47.638;18.966;2024-03-29T02:38:36;2.30;;;0.47;;
71253;SDS011;59019;47.638;18.966;2024-03-29T02:41:02;1.60;;;0.40;;
71253;SDS011;59019;47.638;18.966;2024-03-29T02:43:27;2.20;;;0.50;;
71253;SDS011;59019;47.638;18.966;2024-03-29T02:45:53;2.10;;;0.40;;
71253;SDS011;59019;47.638;18.966;2024-03-29T02:48:18;1.97;;;0.40;;
71253;SDS011;59019;47.638;18.966;2024-03-29T02:50:44;2.80;;;0.57;;
71253;SDS011;59019;47.638;18.966;2024-03-29T02:53:09;2.17;;;0.50;;
71253;SDS011;59019;47.638;18.966;2024-03-29T02:55:35;2.03;;;0.47;;
71253;SDS011;59019;47.638;18.966;2024-03-29T02:58:00;2.43;;;0.40;;
71253;SDS011;59019;47.638;18.966;2024-03-29T03:00:25;2.00;;;0.40;;
71253;SDS011;59019;47.638;18.966;2024-03-29T03:02:51;2.30;;;0.40;;
71253;SDS011;59019;47.638;18.966;2024-03-29T03:05:16;1.90;;;0.40;;
71253;SDS011;59019;47.638;18.966;2024-03-29T03:07:42;2.03;;;0.57;;
71253;SDS011;59019;47.638;18.966;2024-03-29T03:10:26;2.03;;;0.50;;
71253;SDS011;59019;47.638;18.966;2024-03-29T03:13:11;2.72;;;0.63;;
71253;SDS011;59019;47.638;18.966;2024-03-29T03:15:36;2.60;;;0.60;;
71253;SDS011;59019;47.638;18.966;2024-03-29T03:18:02;2.40;;;0.60;;
71253;SDS011;59019;47.638;18.966;2024-03-29T03:20:27;2.80;;;0.60;;
71253;SDS011;59019;47.638;18.966;2024-03-29T03:22:55;2.40;;;0.60;;
71253;SDS011;59019;47.638;18.966;2024-03-29T03:25:22;2.60;;;0.70;;
71253;SDS011;59019;47.638;18.966;2024-03-29T03:27:48;2.70;;;0.60;;
71253;SDS011;59019;47.638;18.966;2024-03-29T03:30:13;2.60;;;0.70;;
71253;SDS011;59019;47.638;18.966;2024-03-29T03:32:38;2.70;;;0.80;;
71253;SDS011;59019;47.638;18.966;2024-03-29T03:35:04;2.73;;;0.70;;
71253;SDS011;59019;47.638;18.966;2024-03-29T03:37:30;2.60;;;0.70;;
71253;SDS011;59019;47.638;18.966;2024-03-29T03:39:56;3.77;;;0.87;;
71253;SDS011;59019;47.638;18.966;2024-03-29T03:42:21;3.00;;;0.70;;
71253;SDS011;59019;47.638;18.966;2024-03-29T03:44:46;3.10;;;0.80;;
71253;SDS011;59019;47.638;18.966;2024-03-29T03:47:12;3.13;;;0.80;;
71253;SDS011;59019;47.638;18.966;2024-03-29T03:49:37;2.53;;;0.73;;
71253;SDS011;59019;47.638;18.966;2024-03-29T03:52:03;2.87;;;0.80;;
71253;SDS011;59019;47.638;18.966;2024-03-29T03:54:28;2.72;;;0.70;;
71253;SDS011;59019;47.638;18.966;2024-03-29T03:56:54;2.58;;;0.55;;
71253;SDS011;59019;47.638;18.966;2024-03-29T03:59:20;2.30;;;0.63;;
71253;SDS011;59019;47.638;18.966;2024-03-29T04:01:45;2.37;;;0.60;;
71253;SDS011;59019;47.638;18.966;2024-03-29T04:04:10;2.27;;;0.57;;
71253;SDS011;59019;47.638;18.966;2024-03-29T04:06:36;2.10;;;0.50;;
71253;SDS011;59019;47.638;18.966;2024-03-29T04:09:01;2.10;;;0.60;;
71253;SDS011;59019;47.638;18.966;2024-03-29T04:11:27;2.60;;;0.60;;
71253;SDS011;59019;47.638;18.966;2024-03-29T04:13:54;2.30;;;0.50;;
71253;SDS011;59019;47.638;18.966;2024-03-29T04:16:19;2.50;;;0.40;;
71253;SDS011;59019;47.638;18.966;2024-03-29T04:18:45;2.10;;;0.50;;
71253;SDS011;59019;47.638;18.966;2024-03-29T04:21:10;2.20;;;0.40;;
71253;SDS011;59019;47.638;18.966;2024-03-29T04:23:36;1.80;;;0.40;;
71253;SDS011;59019;47.638;18.966;2024-03-29T04:26:02;2.80;;;0.63;;
71253;SDS011;59019;47.638;18.966;2024-03-29T04:28:27;2.60;;;0.40;;
71253;SDS011;59019;47.638;18.966;2024-03-29T04:30:57;3.40;;;0.40;;
71253;SDS011;59019;47.638;18.966;2024-03-29T04:33:23;3.40;;;0.52;;
71253;SDS011;59019;47.638;18.966;2024-03-29T04:36:02;3.30;;;0.50;;
71253;SDS011;59019;47.638;18.966;2024-03-29T04:38:29;2.40;;;0.60;;
71253;SDS011;59019;47.638;18.966;2024-03-29T04:40:55;1.93;;;0.50;;
71253;SDS011;59019;47.638;18.966;2024-03-29T04:43:23;3.00;;;0.50;;
71253;SDS011;59019;47.638;18.966;2024-03-29T04:48:50;3.07;;;0.80;;
71253;SDS011;59019;47.638;18.966;2024-03-29T04:51:15;2.40;;;0.50;;
71253;SDS011;59019;47.638;18.966;2024-03-29T04:53:41;2.15;;;0.50;;
71253;SDS011;59019;47.638;18.966;2024-03-29T04:56:06;2.20;;;0.50;;
71253;SDS011;59019;47.638;18.966;2024-03-29T04:58:32;2.23;;;0.50;;
71253;SDS011;59019;47.638;18.966;2024-03-29T05:00:58;1.90;;;0.40;;
71253;SDS011;59019;47.638;18.966;2024-03-29T05:03:23;4.18;;;0.43;;
71253;SDS011;59019;47.638;18.966;2024-03-29T05:05:49;2.40;;;0.50;;
71253;SDS011;59019;47.638;18.966;2024-03-29T05:08:16;2.63;;;0.50;;
71253;SDS011;59019;47.638;18.966;2024-03-29T05:10:43;2.67;;;0.52;;
71253;SDS011;59019;47.638;18.966;2024-03-29T05:13:08;2.77;;;0.73;;
71253;SDS011;59019;47.638;18.966;2024-03-29T05:15:34;2.83;;;0.60;;
71253;SDS011;59019;47.638;18.966;2024-03-29T05:17:59;3.13;;;0.80;;
71253;SDS011;59019;47.638;18.966;2024-03-29T05:20:25;4.13;;;1.00;;
71253;SDS011;59019;47.638;18.966;2024-03-29T05:22:50;3.78;;;1.00;;
71253;SDS011;59019;47.638;18.966;2024-03-29T05:25:16;3.00;;;1.00;;
71253;SDS011;59019;47.638;18.966;2024-03-29T05:27:41;3.67;;;0.80;;
71253;SDS011;59019;47.638;18.966;2024-03-29T05:30:07;3.60;;;0.80;;
71253;SDS011;59019;47.638;18.966;2024-03-29T05:32:37;3.13;;;0.80;;
71253;SDS011;59019;47.638;18.966;2024-03-29T05:35:02;3.97;;;0.80;;
71253;SDS011;59019;47.638;18.966;2024-03-29T05:37:29;3.20;;;0.90;;
71253;SDS011;59019;47.638;18.966;2024-03-29T05:39:54;3.37;;;0.83;;
71253;SDS011;59019;47.638;18.966;2024-03-29T05:42:31;2.88;;;0.88;;
71253;SDS011;59019;47.638;18.966;2024-03-29T05:44:58;3.10;;;0.80;;
71253;SDS011;59019;47.638;18.966;2024-03-29T05:47:24;3.25;;;0.80;;
71253;SDS011;59019;47.638;18.966;2024-03-29T05:49:49;3.50;;;0.90;;
71253;SDS011;59019;47.638;18.966;2024-03-29T05:52:15;3.23;;;0.80;;
71253;SDS011;59019;47.638;18.966;2024-03-29T05:54:42;3.75;;;0.80;;
71253;SDS011;59019;47.638;18.966;2024-03-29T05:57:08;3.60;;;1.00;;
71253;SDS011;59019;47.638;18.966;2024-03-29T05:59:34;3.83;;;0.83;;
71253;SDS011;59019;47.638;18.966;2024-03-29T06:01:59;3.80;;;0.80;;
71253;SDS011;59019;47.638;18.966;2024-03-29T06:04:25;4.07;;;0.80;;
71253;SDS011;59019;47.638;18.966;2024-03-29T06:07:02;2.22;;;0.50;;
71253;SDS011;59019;47.638;18.966;2024-03-29T06:09:28;3.30;;;0.70;;
71253;SDS011;59019;47.638;18.966;2024-03-29T06:11:55;2.00;;;0.50;;
71253;SDS011;59019;47.638;18.966;2024-03-29T06:14:25;1.83;;;0.40;;
71253;SDS011;59019;47.638;18.966;2024-03-29T06:17:10;2.10;;;0.40;;
71253;SDS011;59019;47.638;18.966;2024-03-29T06:19:52;1.70;;;0.38;;
71253;SDS011;59019;47.638;18.966;2024-03-29T06:22:23;2.00;;;0.45;;
71253;SDS011;59019;47.638;18.966;2024-03-29T06:24:50;4.40;;;0.50;;
71253;SDS011;59019;47.638;18.966;2024-03-29T06:27:18;1.80;;;0.40;;
71253;SDS011;59019;47.638;18.966;2024-03-29T06:29:49;2.00;;;0.40;;
71253;SDS011;59019;47.638;18.966;2024-03-29T06:32:15;2.40;;;0.50;;
71253;SDS011;59019;47.638;18.966;2024-03-29T06:34:44;2.13;;;0.40;;
71253;SDS011;59019;47.638;18.966;2024-03-29T06:37:10;2.55;;;0.50;;
71253;SDS011;59019;47.638;18.966;2024-03-29T06:39:36;1.92;;;0.40;;
71253;SDS011;59019;47.638;18.966;2024-03-29T06:42:03;1.97;;;0.50;;
71253;SDS011;59019;47.638;18.966;2024-03-29T06:44:32;1.88;;;0.50;;
71253;SDS011;59019;47.638;18.966;2024-03-29T06:46:58;4.90;;;1.50;;
71253;SDS011;59019;47.638;18.966;2024-03-29T06:49:25;3.35;;;0.80;;
71253;SDS011;59019;47.638;18.966;2024-03-29T06:51:51;3.00;;;0.70;;
71253;SDS011;59019;47.638;18.966;2024-03-29T06:54:17;3.30;;;0.60;;
71253;SDS011;59019;47.638;18.966;2024-03-29T06:56:47;3.10;;;0.60;;
71253;SDS011;59019;47.638;18.966;2024-03-29T06:59:13;2.35;;;0.60;;
71253;SDS011;59019;47.638;18.966;2024-03-29T07:01:39;3.47;;;0.80;;
71253;SDS011;59019;47.638;18.966;2024-03-29T07:04:05;2.70;;;0.60;;
71253;SDS011;59019;47.638;18.966;2024-03-29T07:06:31;3.30;;;0.60;;
71253;SDS011;59019;47.638;18.966;2024-03-29T07:08:59;3.50;;;1.20;;
71253;SDS011;59019;47.638;18.966;2024-03-29T07:11:25;4.00;;;1.30;;
71253;SDS011;59019;47.638;18.966;2024-03-29T07:13:50;2.87;;;0.60;;
71253;SDS011;59019;47.638;18.966;2024-03-29T07:16:16;2.35;;;0.47;;
71253;SDS011;59019;47.638;18.966;2024-03-29T07:18:42;2.37;;;0.60;;
71253;SDS011;59019;47.638;18.966;2024-03-29T07:21:07;1.90;;;0.40;;
71253;SDS011;59019;47.638;18.966;2024-03-29T07:23:33;1.93;;;0.40;;
71253;SDS011;59019;47.638;18.966;2024-03-29T07:26:02;2.60;;;0.88;;
71253;SDS011;59019;47.638;18.966;2024-03-29T07:28:29;3.30;;;1.10;;
71253;SDS011;59019;47.638;18.966;2024-03-29T07:30:55;3.47;;;1.20;;
71253;SDS011;59019;47.638;18.966;2024-03-29T07:33:21;3.55;;;1.20;;
71253;SDS011;59019;47.638;18.966;2024-03-29T07:35:56;3.03;;;1.10;;
71253;SDS011;59019;47.638;18.966;2024-03-29T07:38:23;3.22;;;1.00;;
71253;SDS011;59019;47.638;18.966;2024-03-29T07:40:49;3.30;;;0.95;;
71253;SDS011;59019;47.638;18.966;2024-03-29T07:43:15;2.72;;;0.90;;
71253;SDS011;59019;47.638;18.966;2024-03-29T07:45:41;3.20;;;0.93;;
71253;SDS011;59019;47.638;18.966;2024-03-29T07:48:10;2.70;;;0.95;;
71253;SDS011;59019;47.638;18.966;2024-03-29T07:50:38;3.97;;;1.00;;
71253;SDS011;59019;47.638;18.966;2024-03-29T07:53:03;2.95;;;0.95;;
71253;SDS011;59019;47.638;18.966;2024-03-29T07:55:29;3.20;;;1.20;;
71253;SDS011;59019;47.638;18.966;2024-03-29T07:57:54;3.10;;;0.97;;
71253;SDS011;59019;47.638;18.966;2024-03-29T08:00:25;3.70;;;1.10;;
71253;SDS011;59019;47.638;18.966;2024-03-29T08:02:51;3.30;;;1.00;;
71253;SDS011;59019;47.638;18.966;2024-03-29T08:05:18;3.53;;;1.00;;
71253;SDS011;59019;47.638;18.966;2024-03-29T08:07:45;3.55;;;1.10;;
71253;SDS011;59019;47.638;18.966;2024-03-29T08:10:10;3.17;;;1.10;;
71253;SDS011;59019;47.638;18.966;2024-03-29T08:12:36;3.40;;;1.00;;
71253;SDS011;59019;47.638;18.966;2024-03-29T08:15:02;3.28;;;1.02;;
71253;SDS011;59019;47.638;18.966;2024-03-29T08:17:28;2.83;;;0.95;;
71253;SDS011;59019;47.638;18.966;2024-03-29T08:19:54;3.00;;;0.90;;
71253;SDS011;59019;47.638;18.966;2024-03-29T08:22:19;3.40;;;1.00;;
71253;SDS011;59019;47.638;18.966;2024-03-29T08:24:45;3.38;;;0.90;;
71253;SDS011;59019;47.638;18.966;2024-03-29T08:27:11;2.90;;;0.90;;
71253;SDS011;59019;47.638;18.966;2024-03-29T08:29:36;2.80;;;0.80;;
71253;SDS011;59019;47.638;18.966;2024-03-29T08:32:03;3.17;;;0.97;;
71253;SDS011;59019;47.638;18.966;2024-03-29T08:34:31;2.97;;;0.82;;
71253;SDS011;59019;47.638;18.966;2024-03-29T08:37:02;3.00;;;0.90;;
71253;SDS011;59019;47.638;18.966;2024-03-29T08:39:28;3.00;;;0.70;;
71253;SDS011;59019;47.638;18.966;2024-03-29T08:41:58;2.33;;;0.60;;
71253;SDS011;59019;47.638;18.966;2024-03-29T08:44:30;2.97;;;0.75;;
71253;SDS011;59019;47.638;18.966;2024-03-29T08:46:59;2.65;;;0.60;;
71253;SDS011;59019;47.638;18.966;2024-03-29T08:49:28;2.92;;;0.60;;
71253;SDS011;59019;47.638;18.966;2024-03-29T08:51:57;2.90;;;0.50;;
71253;SDS011;59019;47.638;18.966;2024-03-29T08:54:24;2.90;;;0.50;;
71253;SDS011;59019;47.638;18.966;2024-03-29T08:56:49;1.63;;;0.40;;
71253;SDS011;59019;47.638;18.966;2024-03-29T08:59:15;1.83;;;0.40;;
71253;SDS011;59019;47.638;18.966;2024-03-29T09:01:44;2.30;;;0.40;;
71253;SDS011;59019;47.638;18.966;2024-03-29T09:04:11;7.80;;;0.70;;
71253;SDS011;59019;47.638;18.966;2024-03-29T09:06:39;2.28;;;0.40;;
71253;SDS011;59019;47.638;18.966;2024-03-29T09:09:05;3.80;;;0.50;;
71253;SDS011;59019;47.638;18.966;2024-03-29T09:11:31;2.33;;;0.50;;
71253;SDS011;59019;47.638;18.966;2024-03-29T09:13:58;2.25;;;0.47;;
71253;SDS011;59019;47.638;18.966;2024-03-29T09:16:27;1.75;;;0.40;;
71253;SDS011;59019;47.638;18.966;2024-03-29T09:18:56;2.33;;;0.50;;
71253;SDS011;59019;47.638;18.966;2024-03-29T09:21:21;2.10;;;0.40;;
71253;SDS011;59019;47.638;18.966;2024-03-29T09:23:52;2.25;;;0.50;;
71253;SDS011;59019;47.638;18.966;2024-03-29T09:26:19;1.60;;;0.40;;
71253;SDS011;59019;47.638;18.966;2024-03-29T09:28:44;2.83;;;0.60;;
71253;SDS011;59019;47.638;18.966;2024-03-29T09:31:11;2.10;;;0.60;;
71253;SDS011;59019;47.638;18.966;2024-03-29T09:33:37;5.40;;;0.70;;
71253;SDS011;59019;47.638;18.966;2024-03-29T09:36:03;2.83;;;0.70;;
71253;SDS011;59019;47.638;18.966;2024-03-29T09:38:28;2.90;;;0.70;;
71253;SDS011;59019;47.638;18.966;2024-03-29T09:43:42;2.83;;;0.80;;
71253;SDS011;59019;47.638;18.966;2024-03-29T09:46:12;2.60;;;0.80;;
71253;SDS011;59019;47.638;18.966;2024-03-29T09:48:44;3.00;;;0.80;;
71253;SDS011;59019;47.638;18.966;2024-03-29T09:51:13;2.85;;;0.60;;
71253;SDS011;59019;47.638;18.966;2024-03-29T09:53:41;3.08;;;0.60;;
71253;SDS011;59019;47.638;18.966;2024-03-29T09:56:09;2.10;;;0.50;;
71253;SDS011;59019;47.638;18.966;2024-03-29T09:58:36;3.90;;;0.60;;
71253;SDS011;59019;47.638;18.966;2024-03-29T10:01:03;2.73;;;0.57;;
71253;SDS011;59019;47.638;18.966;2024-03-29T10:03:31;2.53;;;0.50;;
71253;SDS011;59019;47.638;18.966;2024-03-29T10:06:00;2.47;;;0.50;;
71253;SDS011;59019;47.638;18.966;2024-03-29T10:08:27;1.80;;;0.40;;
71253;SDS011;59019;47.638;18.966;2024-03-29T10:10:54;2.10;;;0.40;;
71253;SDS011;59019;47.638;18.966;2024-03-29T10:13:24;1.85;;;0.40;;
71253;SDS011;59019;47.638;18.966;2024-03-29T10:15:51;2.40;;;0.40;;
71253;SDS011;59019;47.638;18.966;2024-03-29T10:18:19;2.05;;;0.40;;
71253;SDS011;59019;47.638;18.966;2024-03-29T10:20:45;2.10;;;0.40;;
71253;SDS011;59019;47.638;18.966;2024-03-29T10:23:12;1.70;;;0.40;;
71253;SDS011;59019;47.638;18.966;2024-03-29T10:25:37;1.95;;;0.40;;
71253;SDS011;59019;47.638;18.966;2024-03-29T10:28:04;2.35;;;0.40;;
71253;SDS011;59019;47.638;18.966;2024-03-29T10:30:30;2.35;;;0.40;;
71253;SDS011;59019;47.638;18.966;2024-03-29T10:32:56;2.40;;;0.50;;
71253;SDS011;59019;47.638;18.966;2024-03-29T10:35:22;2.80;;;0.50;;
71253;SDS011;59019;47.638;18.966;2024-03-29T10:37:47;3.30;;;0.50;;
71253;SDS011;59019;47.638;18.966;2024-03-29T10:40:13;2.13;;;0.50;;
71253;SDS011;59019;47.638;18.966;2024-03-29T10:42:41;2.47;;;0.47;;
71253;SDS011;59019;47.638;18.966;2024-03-29T10:45:06;2.87;;;0.60;;
71253;SDS011;59019;47.638;18.966;2024-03-29T10:47:33;3.15;;;0.52;;
71253;SDS011;59019;47.638;18.966;2024-03-29T10:49:59;2.85;;;0.70;;
71253;SDS011;59019;47.638;18.966;2024-03-29T10:52:25;3.22;;;0.70;;
71253;SDS011;59019;47.638;18.966;2024-03-29T10:54:51;2.85;;;0.68;;
71253;SDS011;59019;47.638;18.966;2024-03-29T10:57:21;2.90;;;0.70;;
71253;SDS011;59019;47.638;18.966;2024-03-29T11:05:30;3.47;;;0.65;;
71253;SDS011;59019;47.638;18.966;2024-03-29T11:07:57;3.17;;;0.70;;
71253;SDS011;59019;47.638;18.966;2024-03-29T11:10:30;2.78;;;0.70;;
71253;SDS011;59019;47.638;18.966;2024-03-29T11:16:04;3.63;;;0.70;;
71253;SDS011;59019;47.638;18.966;2024-03-29T11:18:30;3.30;;;0.70;;
71253;SDS011;59019;47.638;18.966;2024-03-29T11:20:56;5.50;;;0.80;;
71253;SDS011;59019;47.638;18.966;2024-03-29T11:23:24;3.22;;;0.70;;
71253;SDS011;59019;47.638;18.966;2024-03-29T11:25:52;3.40;;;0.70;;
71253;SDS011;59019;47.638;18.966;2024-03-29T11:28:37;4.47;;;0.70;;
71253;SDS011;59019;47.638;18.966;2024-03-29T11:33:31;4.40;;;0.80;;
71253;SDS011;59019;47.638;18.966;2024-03-29T11:36:11;4.38;;;0.88;;
71253;SDS011;59019;47.638;18.966;2024-03-29T11:38:36;3.92;;;0.70;;
71253;SDS011;59019;47.638;18.966;2024-03-29T11:41:13;3.38;;;0.80;;
71253;SDS011;59019;47.638;18.966;2024-03-29T11:43:40;3.72;;;0.80;;
71253;SDS011;59019;47.638;18.966;2024-03-29T11:46:08;4.00;;;0.88;;
71253;SDS011;59019;47.638;18.966;2024-03-29T11:48:37;5.20;;;0.90;;
71253;SDS011;59019;47.638;18.966;2024-03-29T11:51:04;4.25;;;0.90;;
71253;SDS011;59019;47.638;18.966;2024-03-29T11:53:31;4.47;;;0.95;;
71253;SDS011;59019;47.638;18.966;2024-03-29T11:55:57;4.85;;;0.90;;
71253;SDS011;59019;47.638;18.966;2024-03-29T11:58:24;5.45;;;1.02;;
71253;SDS011;59019;47.638;18.966;2024-03-29T12:00:51;4.15;;;0.80;;
71253;SDS011;59019;47.638;18.966;2024-03-29T12:03:19;5.27;;;1.10;;
71253;SDS011;59019;47.638;18.966;2024-03-29T12:05:47;5.95;;;1.10;;
71253;SDS011;59019;47.638;18.966;2024-03-29T12:08:14;5.30;;;1.10;;
71253;SDS011;59019;47.638;18.966;2024-03-29T12:10:40;6.82;;;1.08;;
71253;SDS011;59019;47.638;18.966;2024-03-29T12:13:06;4.97;;;0.97;;
71253;SDS011;59019;47.638;18.966;2024-03-29T12:15:32;4.80;;;1.10;;
71253;SDS011;59019;47.638;18.966;2024-03-29T12:17:58;5.85;;;0.90;;
71253;SDS011;59019;47.638;18.966;2024-03-29T12:20:34;6.85;;;1.10;;
71253;SDS011;59019;47.638;18.966;2024-03-29T12:23:02;5.28;;;1.13;;
71253;SDS011;59019;47.638;18.966;2024-03-29T12:25:29;4.90;;;0.90;;
71253;SDS011;59019;47.638;18.966;2024-03-29T12:27:56;5.90;;;1.00;;
71253;SDS011;59019;47.638;18.966;2024-03-29T12:30:23;6.10;;;1.02;;
71253;SDS011;59019;47.638;18.966;2024-03-29T12:32:59;4.45;;;0.82;;
71253;SDS011;59019;47.638;18.966;2024-03-29T12:35:32;4.23;;;0.90;;
71253;SDS011;59019;47.638;18.966;2024-03-29T12:38:02;5.70;;;1.00;;
71253;SDS011;59019;47.638;18.966;2024-03-29T12:40:32;5.72;;;1.00;;
71253;SDS011;59019;47.638;18.966;2024-03-29T12:43:02;6.15;;;1.15;;
71253;SDS011;59019;47.638;18.966;2024-03-29T12:45:33;4.43;;;1.08;;
71253;SDS011;59019;47.638;18.966;2024-03-29T12:47:59;6.28;;;1.00;;
71253;SDS011;59019;47.638;18.966;2024-03-29T12:50:25;5.80;;;1.00;;
71253;SDS011;59019;47.638;18.966;2024-03-29T12:52:53;5.47;;;1.10;;
71253;SDS011;59019;47.638;18.966;2024-03-29T12:55:26;6.13;;;1.00;;
71253;SDS011;59019;47.638;18.966;2024-03-29T12:57:55;5.05;;;1.08;;
71253;SDS011;59019;47.638;18.966;2024-03-29T13:00:22;6.25;;;1.27;;
71253;SDS011;59019;47.638;18.966;2024-03-29T13:02:48;8.20;;;1.20;;
71253;SDS011;59019;47.638;18.966;2024-03-29T13:05:14;7.68;;;1.20;;
71253;SDS011;59019;47.638;18.966;2024-03-29T13:07:40;5.72;;;1.10;;
71253;SDS011;59019;47.638;18.966;2024-03-29T13:10:06;5.23;;;1.10;;
71253;SDS011;59019;47.638;18.966;2024-03-29T13:12:36;4.90;;;1.13;;
71253;SDS011;59019;47.638;18.966;2024-03-29T13:15:03;5.40;;;1.10;;
71253;SDS011;59019;47.638;18.966;2024-03-29T13:17:39;7.55;;;1.20;;
71253;SDS011;59019;47.638;18.966;2024-03-29T13:20:04;6.28;;;1.25;;
71253;SDS011;59019;47.638;18.966;2024-03-29T13:22:30;7.77;;;1.27;;
71253;SDS011;59019;47.638;18.966;2024-03-29T13:24:55;5.00;;;1.10;;
71253;SDS011;59019;47.638;18.966;2024-03-29T13:27:24;7.30;;;1.40;;
71253;SDS011;59019;47.638;18.966;2024-03-29T13:29:49;7.27;;;1.40;;
71253;SDS011;59019;47.638;18.966;2024-03-29T13:32:15;8.60;;;1.60;;
71253;SDS011;59019;47.638;18.966;2024-03-29T13:34:40;6.28;;;1.30;;
71253;SDS011;59019;47.638;18.966;2024-03-29T13:37:05;8.30;;;1.40;;
71253;SDS011;59019;47.638;18.966;2024-03-29T13:39:31;7.07;;;1.40;;
71253;SDS011;59019;47.638;18.966;2024-03-29T13:41:57;9.10;;;1.43;;
71253;SDS011;59019;47.638;18.966;2024-03-29T13:44:22;5.88;;;1.30;;
71253;SDS011;59019;47.638;18.966;2024-03-29T13:46:48;6.70;;;1.42;;
71253;SDS011;59019;47.638;18.966;2024-03-29T13:49:13;7.90;;;1.20;;
71253;SDS011;59019;47.638;18.966;2024-03-29T13:51:42;5.70;;;1.33;;
71253;SDS011;59019;47.638;18.966;2024-03-29T13:54:07;6.87;;;1.30;;
71253;SDS011;59019;47.638;18.966;2024-03-29T13:56:33;7.83;;;1.67;;
71253;SDS011;59019;47.638;18.966;2024-03-29T13:58:58;7.30;;;1.40;;
71253;SDS011;59019;47.638;18.966;2024-03-29T14:01:23;8.83;;;1.40;;
71253;SDS011;59019;47.638;18.966;2024-03-29T14:03:49;6.93;;;1.40;;
71253;SDS011;59019;47.638;18.966;2024-03-29T14:06:14;7.75;;;1.98;;
71253;SDS011;59019;47.638;18.966;2024-03-29T14:08:40;6.90;;;1.20;;
71253;SDS011;59019;47.638;18.966;2024-03-29T14:11:06;8.77;;;1.70;;
71253;SDS011;59019;47.638;18.966;2024-03-29T14:13:31;6.45;;;1.33;;
71253;SDS011;59019;47.638;18.966;2024-03-29T14:15:58;4.97;;;1.20;;
71253;SDS011;59019;47.638;18.966;2024-03-29T14:18:26;6.43;;;1.10;;
71253;SDS011;59019;47.638;18.966;2024-03-29T14:20:53;6.07;;;1.30;;
71253;SDS011;59019;47.638;18.966;2024-03-29T14:23:20;6.77;;;1.40;;
71253;SDS011;59019;47.638;18.966;2024-03-29T14:25:48;6.07;;;1.30;;
71253;SDS011;59019;47.638;18.966;2024-03-29T14:28:14;8.43;;;1.42;;
71253;SDS011;59019;47.638;18.966;2024-03-29T14:30:39;8.07;;;1.30;;
71253;SDS011;59019;47.638;18.966;2024-03-29T14:33:04;6.80;;;1.30;;
71253;SDS011;59019;47.638;18.966;2024-03-29T14:35:36;6.82;;;1.30;;
71253;SDS011;59019;47.638;18.966;2024-03-29T14:38:01;7.68;;;1.33;;
71253;SDS011;59019;47.638;18.966;2024-03-29T14:40:27;7.77;;;1.40;;
71253;SDS011;59019;47.638;18.966;2024-03-29T14:42:53;5.68;;;1.20;;
71253;SDS011;59019;47.638;18.966;2024-03-29T14:45:19;5.35;;;1.35;;
71253;SDS011;59019;47.638;18.966;2024-03-29T14:47:45;6.47;;;1.20;;